createdAt,value
2023-01-12T00:02:10.410Z,25.80
2023-01-12T00:04:38.322Z,24.67
2023-01-12T00:07:10.219Z,17.98
2023-01-12T00:09:37.854Z,20.00
2023-01-12T00:12:08.123Z,21.95
2023-01-12T00:14:37.006Z,22.42
2023-01-12T00:17:06.306Z,22.15
2023-01-12T00:19:34.134Z,21.52
2023-01-12T00:22:03.566Z,19.13
2023-01-12T00:24:37.490Z,20.20
2023-01-12T00:27:10.474Z,20.00
2023-01-12T00:29:38.040Z,20.40
2023-01-12T00:32:07.165Z,21.05
2023-01-12T00:34:34.288Z,21.05
2023-01-12T00:37:02.434Z,28.48
2023-01-12T00:39:29.958Z,26.48
2023-01-12T00:42:15.960Z,22.67
2023-01-12T00:45:01.591Z,21.73
2023-01-12T00:47:29.171Z,22.33
2023-01-12T00:49:56.362Z,20.92
2023-01-12T00:52:31.845Z,21.42
2023-01-12T00:54:59.908Z,26.77
2023-01-12T00:57:28.581Z,28.08
2023-01-12T00:59:58.336Z,22.08
2023-01-12T01:02:27.768Z,20.40
2023-01-12T01:04:55.645Z,25.05
2023-01-12T01:07:23.715Z,25.95
2023-01-12T01:09:51.343Z,24.42
2023-01-12T01:12:18.923Z,25.63
2023-01-12T01:14:47.974Z,23.88
2023-01-12T01:17:15.628Z,25.75
2023-01-12T01:19:43.705Z,24.35
2023-01-12T01:22:13.039Z,28.20
2023-01-12T01:24:41.145Z,24.58
2023-01-12T01:27:08.634Z,25.20
2023-01-12T01:29:35.898Z,23.90
2023-01-12T01:32:03.526Z,23.25
2023-01-12T01:34:30.761Z,24.48
2023-01-12T01:36:59.296Z,25.67
2023-01-12T01:39:26.491Z,26.25
2023-01-12T01:41:54.128Z,25.88
2023-01-12T01:44:30.180Z,30.58
2023-01-12T01:47:02.775Z,29.58
2023-01-12T01:49:41.532Z,26.88
2023-01-12T01:52:32.806Z,27.88
2023-01-12T01:55:23.841Z,27.10
2023-01-12T01:57:56.485Z,25.15
2023-01-12T02:02:53.568Z,27.20
2023-01-12T02:05:25.225Z,26.27
2023-01-12T02:07:53.614Z,27.15
2023-01-12T02:10:21.769Z,29.33
2023-01-12T02:13:09.488Z,27.33
2023-01-12T02:16:19.137Z,30.25
2023-01-12T02:19:05.811Z,28.10
2023-01-12T02:21:42.117Z,28.48
2023-01-12T02:24:30.751Z,26.88
2023-01-12T02:27:30.025Z,29.35
2023-01-12T02:30:14.029Z,33.60
2023-01-12T02:32:52.397Z,31.10
2023-01-12T02:35:31.641Z,32.35
2023-01-12T02:38:21.448Z,32.08
2023-01-12T02:40:59.277Z,31.77
2023-01-12T02:43:30.223Z,31.38
2023-01-12T02:46:21.535Z,29.60
2023-01-12T02:48:55.547Z,30.20
2023-01-12T02:51:29.329Z,31.70
2023-01-12T02:54:02.823Z,33.85
2023-01-12T02:56:39.963Z,35.80
2023-01-12T02:59:18.523Z,35.42
2023-01-12T03:01:50.837Z,35.35
2023-01-12T03:04:19.651Z,36.50
2023-01-12T03:06:59.051Z,37.45
2023-01-12T03:09:41.826Z,43.28
2023-01-12T03:12:20.076Z,41.85
2023-01-12T03:14:49.780Z,38.53
2023-01-12T03:17:32.104Z,40.80
2023-01-12T03:20:07.236Z,45.50
2023-01-12T03:22:36.753Z,42.78
2023-01-12T03:25:10.341Z,43.53
2023-01-12T03:27:48.613Z,42.05
2023-01-12T03:30:23.253Z,44.10
2023-01-12T03:32:51.730Z,43.80
2023-01-12T03:35:23.053Z,42.03
2023-01-12T03:37:58.292Z,43.10
2023-01-12T03:40:41.911Z,40.97
2023-01-12T03:43:19.898Z,43.25
2023-01-12T03:45:49.254Z,41.60
2023-01-12T03:48:26.628Z,39.78
2023-01-12T03:51:11.950Z,42.28
2023-01-12T03:53:42.192Z,40.92
2023-01-12T03:56:13.052Z,38.03
2023-01-12T03:58:41.313Z,36.08
2023-01-12T04:01:08.718Z,40.30
2023-01-12T04:03:36.299Z,37.50
2023-01-12T04:06:03.602Z,39.67
2023-01-12T04:08:31.658Z,42.65
2023-01-12T04:10:58.861Z,38.45
2023-01-12T04:13:26.288Z,38.65
2023-01-12T04:15:53.393Z,36.78
2023-01-12T04:18:20.834Z,37.35
2023-01-12T04:20:48.116Z,37.63
2023-01-12T04:23:15.536Z,39.60
2023-01-12T04:25:42.667Z,38.88
2023-01-12T04:28:10.090Z,38.88
2023-01-12T04:30:37.293Z,40.58
2023-01-12T04:33:09.212Z,41.33
2023-01-12T04:35:36.385Z,39.88
2023-01-12T04:38:08.377Z,36.33
2023-01-12T04:40:35.698Z,39.47
2023-01-12T04:43:08.438Z,38.75
2023-01-12T04:45:41.672Z,39.45
2023-01-12T04:48:14.332Z,36.80
2023-01-12T04:50:42.517Z,37.33
2023-01-12T04:53:12.241Z,36.50
2023-01-12T04:55:41.819Z,36.88
2023-01-12T04:58:10.048Z,36.83
2023-01-12T05:00:37.237Z,36.85
2023-01-12T05:03:04.700Z,36.20
2023-01-12T05:05:33.548Z,36.70
2023-01-12T05:08:21.776Z,35.38
2023-01-12T05:10:53.330Z,33.00
2023-01-12T05:13:21.767Z,36.28
2023-01-12T05:15:48.977Z,34.15
2023-01-12T05:18:16.456Z,32.78
2023-01-12T05:20:43.723Z,34.80
2023-01-12T05:23:11.261Z,34.45
2023-01-12T05:25:38.425Z,34.85
2023-01-12T05:28:06.071Z,35.83
2023-01-12T05:30:33.268Z,33.65
2023-01-12T05:33:00.756Z,38.38
2023-01-12T05:35:28.753Z,35.63
2023-01-12T05:37:57.028Z,34.97
2023-01-12T05:40:24.671Z,30.85
2023-01-12T05:43:11.532Z,31.95
2023-01-12T05:45:38.723Z,33.17
2023-01-12T05:48:06.487Z,33.65
2023-01-12T05:50:33.656Z,33.22
2023-01-12T05:53:10.630Z,29.75
2023-01-12T05:55:38.862Z,31.05
2023-01-12T05:58:06.459Z,26.42
2023-01-12T06:00:33.787Z,29.38
2023-01-12T06:03:03.134Z,28.67
2023-01-12T06:05:30.396Z,28.75
2023-01-12T06:07:59.054Z,29.67
2023-01-12T06:10:26.405Z,31.42
2023-01-12T06:13:12.579Z,32.90
2023-01-12T06:15:39.941Z,28.92
2023-01-12T06:18:07.433Z,30.17
2023-01-12T06:20:34.865Z,29.83
2023-01-12T06:23:03.362Z,27.88
2023-01-12T06:25:31.364Z,29.05
2023-01-12T06:27:58.943Z,31.13
2023-01-12T06:30:26.067Z,32.20
2023-01-12T06:32:53.590Z,30.50
2023-01-12T06:35:20.751Z,32.38
2023-01-12T06:37:47.919Z,32.20
2023-01-12T06:40:16.000Z,33.33
2023-01-12T06:42:43.340Z,34.78
2023-01-12T06:45:11.081Z,31.73
2023-01-12T06:47:45.976Z,33.95
2023-01-12T06:50:13.440Z,34.03
2023-01-12T06:52:40.951Z,31.13
2023-01-12T06:55:09.183Z,31.67
2023-01-12T06:57:36.463Z,32.55
2023-01-12T07:00:05.583Z,30.00
2023-01-12T07:02:32.956Z,31.63
2023-01-12T07:05:00.514Z,30.15
2023-01-12T07:07:27.751Z,33.22
2023-01-12T07:09:55.266Z,28.00
2023-01-12T07:12:22.694Z,32.08
2023-01-12T07:14:50.207Z,32.90
2023-01-12T07:17:17.911Z,32.53
2023-01-12T07:19:45.371Z,32.53
2023-01-12T07:22:12.696Z,29.40
2023-01-12T07:24:40.314Z,29.23
2023-01-12T07:27:07.463Z,31.23
2023-01-12T07:29:34.870Z,30.08
2023-01-12T07:32:02.155Z,28.35
2023-01-12T07:34:30.049Z,27.55
2023-01-12T07:36:57.524Z,31.33
2023-01-12T07:39:24.927Z,29.00
2023-01-12T07:42:10.680Z,29.27
2023-01-12T07:44:38.334Z,28.60
2023-01-12T07:47:05.522Z,26.23
2023-01-12T07:49:32.912Z,27.50
2023-01-12T07:52:00.234Z,29.33
2023-01-12T07:54:27.675Z,28.20
2023-01-12T07:56:54.895Z,29.80
2023-01-12T07:59:22.444Z,28.17
2023-01-12T08:01:49.584Z,25.55
2023-01-12T08:04:17.084Z,26.27
2023-01-12T08:06:44.309Z,25.98
2023-01-12T08:09:11.798Z,26.35
2023-01-12T08:11:39.021Z,23.85
2023-01-12T08:14:06.726Z,24.80
2023-01-12T08:16:38.230Z,24.08
2023-01-12T08:19:15.747Z,25.95
2023-01-12T08:21:49.680Z,24.02
2023-01-12T08:24:21.955Z,24.02
2023-01-12T08:26:51.864Z,24.13
2023-01-12T08:29:33.484Z,22.48
2023-01-12T08:32:04.965Z,21.30
2023-01-12T08:34:35.139Z,21.45
2023-01-12T08:37:06.287Z,20.73
2023-01-12T08:39:35.353Z,23.50
2023-01-12T08:42:03.851Z,23.38
2023-01-12T08:44:34.329Z,22.70
2023-01-12T08:47:02.626Z,21.50
2023-01-12T08:49:31.393Z,22.40
2023-01-12T08:51:58.741Z,22.15
2023-01-12T08:54:26.325Z,22.45
2023-01-12T08:56:54.759Z,23.95
2023-01-12T08:59:22.582Z,23.65
2023-01-12T09:01:50.030Z,21.88
2023-01-12T09:04:17.883Z,21.42
2023-01-12T09:06:45.670Z,22.10
2023-01-12T09:09:16.858Z,19.73
2023-01-12T09:11:45.068Z,19.58
2023-01-12T09:14:14.344Z,19.10
2023-01-12T09:16:42.558Z,17.92
2023-01-12T09:19:10.330Z,18.92
2023-01-12T09:21:40.233Z,18.48
2023-01-12T09:24:08.262Z,17.38
2023-01-12T09:26:40.906Z,16.08
2023-01-12T09:29:10.615Z,16.08
2023-01-12T09:31:40.024Z,17.42
2023-01-12T09:34:07.672Z,13.55
2023-01-12T09:36:37.585Z,13.02
2023-01-12T09:39:06.102Z,14.45
2023-01-12T09:41:57.113Z,14.75
2023-01-12T09:45:08.562Z,12.43
2023-01-12T09:47:56.818Z,18.20
2023-01-12T09:50:29.101Z,12.18
2023-01-12T09:53:32.162Z,15.50
2023-01-12T09:56:18.072Z,20.10
2023-01-12T09:58:57.095Z,19.23
2023-01-12T10:01:29.726Z,15.85
2023-01-12T10:04:01.199Z,14.10
2023-01-12T10:06:29.907Z,35.70
2023-01-12T10:09:00.444Z,17.88
2023-01-12T10:11:36.244Z,13.15
2023-01-12T10:14:33.724Z,23.35
2023-01-12T10:17:12.849Z,17.00
2023-01-12T10:20:00.403Z,17.10
2023-01-12T10:22:38.184Z,13.68
2023-01-12T10:25:23.123Z,10.27
2023-01-12T10:27:53.741Z,15.63
2023-01-12T10:30:31.736Z,11.98
2023-01-12T10:33:16.865Z,20.45
2023-01-12T10:36:03.649Z,21.70
2023-01-12T10:38:39.786Z,13.95
2023-01-12T10:41:14.551Z,22.45
2023-01-12T10:43:43.204Z,28.55
2023-01-12T10:46:19.451Z,32.42
2023-01-12T10:48:49.221Z,41.05
2023-01-12T10:51:22.011Z,16.17
2023-01-12T10:54:10.772Z,68.93
2023-01-12T10:56:41.563Z,86.50
2023-01-12T10:59:21.487Z,64.32
2023-01-12T11:02:13.420Z,43.38
2023-01-12T11:04:44.026Z,26.02
2023-01-12T11:07:22.804Z,48.65
2023-01-12T11:09:50.190Z,26.20
2023-01-12T11:12:40.076Z,34.35
2023-01-12T11:15:10.447Z,44.00
2023-01-12T11:17:50.235Z,27.38
2023-01-12T11:20:41.091Z,81.93
2023-01-12T11:23:34.009Z,13.50
2023-01-12T11:26:08.126Z,27.08
2023-01-12T11:28:40.307Z,42.95
2023-01-12T11:31:12.687Z,28.15
2023-01-12T11:33:48.722Z,29.33
2023-01-12T11:36:24.385Z,26.48
2023-01-12T11:39:02.561Z,26.27
2023-01-12T11:42:09.093Z,21.45
2023-01-12T11:44:40.063Z,18.10
2023-01-12T11:47:15.976Z,9.98
2023-01-12T11:49:53.711Z,23.60
2023-01-12T11:52:21.316Z,12.63
2023-01-12T11:54:48.510Z,16.20
2023-01-12T11:57:57.153Z,13.15
2023-01-12T12:00:42.415Z,11.93
2023-01-12T12:03:20.917Z,10.65
2023-01-12T12:06:19.430Z,8.55
2023-01-12T12:09:01.510Z,9.48
2023-01-12T12:11:44.926Z,6.97
2023-01-12T12:14:31.389Z,6.22
2023-01-12T12:17:11.227Z,7.35
2023-01-12T12:19:50.214Z,6.15
2023-01-12T12:22:35.354Z,7.40
2023-01-12T12:25:38.125Z,11.50
2023-01-12T12:28:43.413Z,10.00
2023-01-12T12:31:16.992Z,7.32
2023-01-12T12:33:53.331Z,5.68
2023-01-12T12:36:46.776Z,5.97
2023-01-12T12:39:22.956Z,13.07
2023-01-12T12:42:17.565Z,9.93
2023-01-12T12:45:18.130Z,10.02
2023-01-12T12:48:04.307Z,9.18
2023-01-12T12:53:35.893Z,6.13
2023-01-12T12:56:07.791Z,6.13
2023-01-12T12:58:42.140Z,6.00
2023-01-12T13:01:23.210Z,6.60
2023-01-12T13:03:54.816Z,8.07
2023-01-12T13:06:21.922Z,9.93
2023-01-12T13:08:55.098Z,5.00
2023-01-12T13:11:48.715Z,4.05
2023-01-12T13:14:29.435Z,4.97
2023-01-12T13:17:25.615Z,6.13
2023-01-12T13:20:08.273Z,4.22
2023-01-12T13:22:50.609Z,4.40
2023-01-12T13:25:22.239Z,5.35
2023-01-12T13:28:03.963Z,3.72
2023-01-12T13:30:31.454Z,6.20
2023-01-12T13:33:24.532Z,5.70
2023-01-12T13:35:52.052Z,5.47
2023-01-12T13:38:34.222Z,4.38
2023-01-12T13:41:02.738Z,4.68
2023-01-12T13:43:40.605Z,6.55
2023-01-12T13:46:17.531Z,4.47
2023-01-12T13:48:50.895Z,8.48
2023-01-12T13:51:47.085Z,4.57
2023-01-12T13:54:15.930Z,4.32
2023-01-12T13:56:52.401Z,4.15
2023-01-12T13:59:19.568Z,4.35
2023-01-12T14:01:48.893Z,4.53
2023-01-12T14:04:19.893Z,4.40
2023-01-12T14:07:24.839Z,6.22
2023-01-12T14:10:17.107Z,4.03
2023-01-12T14:13:10.247Z,5.22
2023-01-12T14:15:59.836Z,4.20
2023-01-12T14:18:40.250Z,8.65
2023-01-12T14:21:33.202Z,5.35
2023-01-12T14:24:26.892Z,5.38
2023-01-12T14:26:54.383Z,5.65
2023-01-12T14:29:21.961Z,5.72
2023-01-12T14:31:52.361Z,4.20
2023-01-12T14:34:29.137Z,5.53
2023-01-12T14:36:56.868Z,6.22
2023-01-12T14:39:27.004Z,4.32
2023-01-12T14:42:14.642Z,4.45
2023-01-12T14:45:09.783Z,4.50
2023-01-12T14:47:37.693Z,4.35
2023-01-12T14:50:14.798Z,4.50
2023-01-12T14:52:44.936Z,5.30
2023-01-12T14:55:41.799Z,4.85
2023-01-12T14:58:19.998Z,4.88
2023-01-12T15:00:48.038Z,4.32
2023-01-12T15:03:31.891Z,4.40
2023-01-12T15:06:03.547Z,5.65
2023-01-12T15:08:31.176Z,5.20
2023-01-12T15:11:06.275Z,7.40
2023-01-12T15:13:35.225Z,6.78
2023-01-12T15:16:23.355Z,7.38
2023-01-12T15:19:09.444Z,8.85
2023-01-12T15:21:57.502Z,7.80
2023-01-12T15:24:43.485Z,6.50
2023-01-12T15:27:21.793Z,7.90
2023-01-12T15:29:49.084Z,7.53
2023-01-12T15:32:47.706Z,9.25
2023-01-12T15:35:21.858Z,7.68
2023-01-12T15:37:50.786Z,7.20
2023-01-12T15:40:18.306Z,8.73
2023-01-12T15:42:46.459Z,8.68
2023-01-12T15:45:32.725Z,10.05
2023-01-12T15:48:01.796Z,8.82
2023-01-12T15:50:29.398Z,8.80
2023-01-12T15:52:58.808Z,10.52
2023-01-12T15:55:26.494Z,9.80
2023-01-12T15:57:53.951Z,8.40
2023-01-12T16:00:23.183Z,9.73
2023-01-12T16:02:52.003Z,9.82
2023-01-12T16:05:22.334Z,9.35
2023-01-12T16:07:50.209Z,8.85
2023-01-12T16:10:18.951Z,9.20
2023-01-12T16:12:47.932Z,9.30
2023-01-12T16:15:26.190Z,8.63
2023-01-12T16:17:53.598Z,10.38
2023-01-12T16:20:21.092Z,8.45
2023-01-12T16:22:49.009Z,9.20
2023-01-12T16:25:16.405Z,7.43
2023-01-12T16:27:43.990Z,19.38
2023-01-12T16:30:16.104Z,13.07
2023-01-12T16:35:15.464Z,8.82
2023-01-12T16:37:43.516Z,9.50
2023-01-12T16:40:11.592Z,7.50
2023-01-12T16:42:39.013Z,7.50
2023-01-12T16:45:06.698Z,9.38
2023-01-12T16:47:34.324Z,8.65
2023-01-12T16:50:01.546Z,8.52
2023-01-12T16:52:29.062Z,10.38
2023-01-12T16:54:56.330Z,7.90
2023-01-12T16:57:23.876Z,7.75
2023-01-12T16:59:51.391Z,7.68
2023-01-12T17:02:19.539Z,10.48
2023-01-12T17:04:49.166Z,10.73
2023-01-12T17:07:16.787Z,8.95
2023-01-12T17:09:44.360Z,8.90
2023-01-12T17:12:11.981Z,7.80
2023-01-12T17:14:39.446Z,8.18
2023-01-12T17:17:10.642Z,9.90
2023-01-12T17:19:42.654Z,9.40
2023-01-12T17:24:42.745Z,9.90
2023-01-12T17:27:11.090Z,10.43
2023-01-12T17:29:38.406Z,9.25
2023-01-12T17:32:07.004Z,9.10
2023-01-12T17:34:38.671Z,8.88
2023-01-12T17:37:08.204Z,8.85
2023-01-12T17:39:37.428Z,8.73
2023-01-12T17:42:23.417Z,8.77
2023-01-12T17:44:50.873Z,8.93
2023-01-12T17:47:18.486Z,8.35
2023-01-12T17:49:47.779Z,9.57
2023-01-12T17:52:15.632Z,15.32
2023-01-12T17:54:43.145Z,9.48
2023-01-12T17:57:11.291Z,9.27
2023-01-12T17:59:38.504Z,9.40
2023-01-12T18:02:07.201Z,9.65
2023-01-12T18:04:34.438Z,9.55
2023-01-12T18:07:01.866Z,8.25
2023-01-12T18:09:29.447Z,9.82
2023-01-12T18:11:56.959Z,10.88
2023-01-12T18:14:24.994Z,10.40
2023-01-12T18:16:52.565Z,13.68
2023-01-12T18:19:19.735Z,10.75
2023-01-12T18:21:49.595Z,9.23
2023-01-12T18:24:16.752Z,10.38
2023-01-12T18:26:45.741Z,9.88
2023-01-12T18:29:13.371Z,9.35
2023-01-12T18:31:42.936Z,14.85
2023-01-12T18:34:10.896Z,12.00
2023-01-12T18:36:41.121Z,9.88
2023-01-12T18:39:11.608Z,10.73
2023-01-12T18:41:57.665Z,13.82
2023-01-12T18:44:25.452Z,10.40
2023-01-12T18:47:12.028Z,13.02
2023-01-12T18:49:40.047Z,10.32
2023-01-12T18:52:30.182Z,14.38
2023-01-12T18:54:57.567Z,10.80
2023-01-12T18:57:27.508Z,9.02
2023-01-12T19:00:00.199Z,9.98
2023-01-12T19:02:28.794Z,9.50
2023-01-12T19:05:12.443Z,10.93
2023-01-12T19:07:51.963Z,9.13
2023-01-12T19:10:19.395Z,9.73
2023-01-12T19:12:46.954Z,8.57
2023-01-12T19:15:32.739Z,10.40
2023-01-12T19:18:00.629Z,10.23
2023-01-12T19:20:29.995Z,12.57
2023-01-12T19:23:16.199Z,35.47
2023-01-12T19:26:12.336Z,34.47
2023-01-12T19:28:40.726Z,32.90
2023-01-12T19:31:10.878Z,15.23
2023-01-12T19:33:39.305Z,18.38
2023-01-12T19:36:09.053Z,19.23
2023-01-12T19:38:37.315Z,20.30
2023-01-12T19:41:29.797Z,11.85
2023-01-12T19:46:28.174Z,14.38
2023-01-12T19:48:55.664Z,15.93
2023-01-12T19:51:23.247Z,15.35
2023-01-12T19:53:50.744Z,15.85
2023-01-12T19:56:18.078Z,21.05
2023-01-12T19:58:45.859Z,18.48
2023-01-12T20:01:23.635Z,19.52
2023-01-12T20:03:51.234Z,18.42
2023-01-12T20:06:18.411Z,17.80
2023-01-12T20:08:45.810Z,15.05
2023-01-12T20:11:13.104Z,12.38
2023-01-12T20:13:40.636Z,15.70
2023-01-12T20:16:10.380Z,13.65
2023-01-12T20:18:38.238Z,10.15
2023-01-12T20:21:09.536Z,11.70
2023-01-12T20:23:37.291Z,27.10
2023-01-12T20:26:12.521Z,11.73
2023-01-12T20:28:40.261Z,12.18
2023-01-12T20:31:13.324Z,15.52
2023-01-12T20:33:40.736Z,23.77
2023-01-12T20:36:15.903Z,10.65
2023-01-12T20:38:43.404Z,16.40
2023-01-12T20:41:11.044Z,11.15
2023-01-12T20:43:38.625Z,18.75
2023-01-12T20:46:10.461Z,27.13
2023-01-12T20:48:40.871Z,16.60
2023-01-12T20:51:10.410Z,11.48
2023-01-12T20:53:38.290Z,10.73
2023-01-12T20:56:06.518Z,21.33
2023-01-12T20:58:34.091Z,12.30
2023-01-12T21:01:01.655Z,13.02
2023-01-12T21:03:29.347Z,13.55
2023-01-12T21:05:56.554Z,22.75
2023-01-12T21:08:24.065Z,11.02
2023-01-12T21:10:52.909Z,10.95
2023-01-12T21:13:21.256Z,10.15
2023-01-12T21:15:48.603Z,11.77
2023-01-12T21:18:15.995Z,9.75
2023-01-12T21:20:43.745Z,11.45
2023-01-12T21:23:11.561Z,7.43
2023-01-12T21:25:44.759Z,14.68
2023-01-12T21:28:12.500Z,12.75
2023-01-12T21:30:39.973Z,19.00
2023-01-12T21:33:07.480Z,9.63
2023-01-12T21:35:34.771Z,6.70
2023-01-12T21:38:02.756Z,7.90
2023-01-12T21:40:30.611Z,8.63
2023-01-12T21:43:10.585Z,18.17
2023-01-12T21:45:40.510Z,23.63
2023-01-12T21:48:09.004Z,13.25
2023-01-12T21:50:37.170Z,16.48
2023-01-12T21:53:06.234Z,7.22
2023-01-12T21:55:34.384Z,13.65
2023-01-12T21:58:02.996Z,10.00
2023-01-12T22:00:31.006Z,12.70
2023-01-12T22:02:58.614Z,10.55
2023-01-12T22:05:26.009Z,8.98
2023-01-12T22:07:55.205Z,7.00
2023-01-12T22:10:30.057Z,6.57
2023-01-12T22:13:03.109Z,6.30
2023-01-12T22:15:30.772Z,7.72
2023-01-12T22:17:58.189Z,6.70
2023-01-12T22:20:27.769Z,6.70
2023-01-12T22:22:54.992Z,8.20
2023-01-12T22:25:22.455Z,7.70
2023-01-12T22:27:49.653Z,6.40
2023-01-12T22:30:24.120Z,11.93
2023-01-12T22:32:56.004Z,13.18
2023-01-12T22:35:26.367Z,7.10
2023-01-12T22:37:54.691Z,5.47
2023-01-12T22:40:22.213Z,8.40
2023-01-12T22:43:07.881Z,6.13
2023-01-12T22:45:37.544Z,9.50
2023-01-12T22:48:05.225Z,13.57
2023-01-12T22:50:32.810Z,10.85
2023-01-12T22:52:59.948Z,10.23
2023-01-12T22:55:27.400Z,7.72
2023-01-12T22:57:54.809Z,9.25
2023-01-12T23:00:22.397Z,7.85
2023-01-12T23:03:02.490Z,7.60
2023-01-12T23:05:56.250Z,9.15
2023-01-12T23:08:24.149Z,6.65
2023-01-12T23:10:52.785Z,9.07
2023-01-12T23:13:21.341Z,7.55
2023-01-12T23:15:57.573Z,7.22
2023-01-12T23:18:28.674Z,6.32
2023-01-12T23:21:11.070Z,10.97
2023-01-12T23:23:39.104Z,9.25
2023-01-12T23:26:09.117Z,11.43
2023-01-12T23:28:40.988Z,10.40
2023-01-12T23:31:11.924Z,11.95
2023-01-12T23:33:40.224Z,11.63
2023-01-12T23:36:13.688Z,8.63
2023-01-12T23:38:41.866Z,12.05
2023-01-12T23:41:13.351Z,14.70
2023-01-12T23:43:41.186Z,15.88
2023-01-12T23:46:09.253Z,20.25
2023-01-12T23:48:36.691Z,21.65
2023-01-12T23:51:05.134Z,14.98
2023-01-12T23:53:32.683Z,12.20
2023-01-12T23:56:07.944Z,25.52
2023-01-12T23:58:35.884Z,23.45
